createdAt,value
2022-08-05T00:00:50.204Z,37.88
2022-08-05T00:02:53.370Z,37.92
2022-08-05T00:04:57.608Z,37.55
2022-08-05T00:07:00.866Z,37.84
2022-08-05T00:09:23.625Z,38.12
2022-08-05T00:11:34.682Z,38.44
2022-08-05T00:13:40.093Z,38.60
2022-08-05T00:15:55.577Z,39.31
2022-08-05T00:18:02.636Z,39.80
2022-08-05T00:20:08.199Z,40.53
2022-08-05T00:22:12.000Z,40.99
2022-08-05T00:24:16.187Z,40.98
2022-08-05T00:26:22.516Z,41.22
2022-08-05T00:28:29.822Z,41.29
2022-08-05T00:30:32.760Z,41.63
2022-08-05T00:32:35.989Z,42.06
2022-08-05T00:34:55.635Z,42.16
2022-08-05T00:37:10.273Z,42.79
2022-08-05T00:39:16.163Z,43.29
2022-08-05T00:41:28.992Z,43.40
2022-08-05T00:43:51.838Z,43.66
2022-08-05T00:45:54.681Z,44.01
2022-08-05T00:48:05.319Z,44.02
2022-08-05T00:50:09.930Z,44.20
2022-08-05T00:52:14.074Z,44.36
2022-08-05T00:54:20.392Z,44.65
2022-08-05T00:56:23.524Z,44.75
2022-08-05T00:58:27.499Z,44.86
2022-08-05T01:00:31.914Z,45.07
2022-08-05T01:02:36.583Z,45.00
2022-08-05T01:04:42.196Z,44.77
2022-08-05T01:06:46.695Z,45.15
2022-08-05T01:08:53.087Z,45.11
2022-08-05T01:10:57.941Z,45.26
2022-08-05T01:13:19.330Z,45.47
2022-08-05T01:15:35.356Z,45.24
2022-08-05T01:17:44.348Z,44.94
2022-08-05T01:20:00.913Z,45.29
2022-08-05T01:22:41.830Z,44.92
2022-08-05T01:25:04.637Z,45.13
2022-08-05T01:27:22.239Z,45.20
2022-08-05T01:29:33.206Z,45.34
2022-08-05T01:31:45.102Z,45.54
2022-08-05T01:33:53.809Z,45.39
2022-08-05T01:36:02.267Z,45.90
2022-08-05T01:38:06.908Z,45.62
2022-08-05T01:40:11.475Z,45.71
2022-08-05T01:42:17.126Z,45.62
2022-08-05T01:44:21.752Z,45.45
2022-08-05T01:46:42.395Z,45.17
2022-08-05T01:48:49.838Z,45.68
2022-08-05T01:50:54.129Z,45.52
2022-08-05T01:53:00.885Z,45.78
2022-08-05T01:55:09.028Z,45.77
2022-08-05T01:58:13.193Z,46.01
2022-08-05T01:59:38.909Z,45.68
2022-08-05T02:01:44.585Z,45.43
2022-08-05T02:03:49.883Z,45.70
2022-08-05T02:05:58.025Z,45.63
2022-08-05T02:08:03.283Z,45.81
2022-08-05T02:10:07.904Z,46.13
2022-08-05T02:12:22.875Z,46.11
2022-08-05T02:14:32.105Z,45.88
2022-08-05T02:16:42.847Z,46.42
2022-08-05T02:18:50.703Z,46.07
2022-08-05T02:20:58.787Z,46.16
2022-08-05T02:23:05.994Z,45.87
2022-08-05T02:25:18.029Z,46.26
2022-08-05T02:27:29.892Z,45.87
2022-08-05T02:29:58.442Z,45.67
2022-08-05T02:32:05.248Z,45.53
2022-08-05T02:34:12.382Z,45.58
2022-08-05T02:36:18.676Z,45.74
2022-08-05T02:38:22.312Z,45.73
2022-08-05T02:40:30.482Z,46.00
2022-08-05T02:42:36.321Z,46.50
2022-08-05T02:44:41.663Z,46.31
2022-08-05T02:46:58.420Z,45.70
2022-08-05T02:49:04.185Z,45.74
2022-08-05T02:51:10.246Z,45.53
2022-08-05T02:53:18.963Z,45.86
2022-08-05T02:55:54.114Z,46.13
2022-08-05T02:58:11.667Z,45.92
2022-08-05T03:00:13.273Z,46.31
2022-08-05T03:02:18.334Z,46.29
2022-08-05T03:04:23.031Z,46.08
2022-08-05T03:06:55.813Z,46.38
2022-08-05T03:08:52.195Z,47.21
2022-08-05T03:11:01.174Z,47.23
2022-08-05T03:13:19.101Z,47.08
2022-08-05T03:15:30.699Z,47.13
2022-08-05T03:17:41.413Z,47.60
2022-08-05T03:19:45.645Z,47.25
2022-08-05T03:21:50.227Z,47.86
2022-08-05T03:23:53.774Z,48.35
2022-08-05T03:26:04.698Z,49.10
2022-08-05T03:28:21.033Z,48.58
2022-08-05T03:30:30.214Z,48.04
2022-08-05T03:32:37.999Z,48.96
2022-08-05T03:34:40.896Z,49.47
2022-08-05T03:36:44.105Z,50.12
2022-08-05T03:38:52.533Z,48.50
2022-08-05T03:40:57.777Z,48.45
2022-08-05T03:43:15.950Z,48.74
2022-08-05T03:45:24.287Z,49.28
2022-08-05T03:47:30.465Z,49.09
2022-08-05T03:49:51.880Z,47.86
2022-08-05T03:52:39.018Z,47.38
2022-08-05T03:55:52.394Z,47.75
2022-08-05T03:56:59.917Z,47.49
2022-08-05T03:59:08.580Z,47.21
2022-08-05T04:01:13.609Z,46.77
2022-08-05T04:03:28.880Z,46.44
2022-08-05T04:05:34.940Z,47.17
2022-08-05T04:07:57.511Z,46.80
2022-08-05T04:10:03.827Z,46.76
2022-08-05T04:12:23.657Z,46.32
2022-08-05T04:14:29.553Z,46.62
2022-08-05T04:16:35.346Z,46.55
2022-08-05T04:18:39.794Z,47.06
2022-08-05T04:20:42.729Z,47.45
2022-08-05T04:22:53.665Z,47.32
2022-08-05T04:24:56.611Z,47.66
2022-08-05T04:27:05.214Z,47.83
2022-08-05T04:29:10.486Z,48.22
2022-08-05T04:31:13.375Z,48.00
2022-08-05T04:33:17.027Z,48.17
2022-08-05T04:36:10.714Z,48.77
2022-08-05T04:38:06.592Z,48.48
2022-08-05T04:40:11.601Z,47.90
2022-08-05T04:42:15.850Z,48.32
2022-08-05T04:44:21.413Z,48.30
2022-08-05T04:46:32.550Z,48.30
2022-08-05T04:48:35.530Z,47.80
2022-08-05T04:51:03.422Z,47.68
2022-08-05T04:53:05.507Z,48.19
2022-08-05T04:55:14.354Z,48.38
2022-08-05T04:57:19.374Z,48.42
2022-08-05T04:59:39.099Z,48.42
2022-08-05T05:02:37.738Z,48.75
2022-08-05T05:04:06.521Z,49.32
2022-08-05T05:06:36.191Z,49.05
2022-08-05T05:08:34.084Z,48.81
2022-08-05T05:10:41.912Z,48.63
2022-08-05T05:13:00.281Z,48.58
2022-08-05T05:15:10.726Z,48.97
2022-08-05T05:17:13.937Z,48.24
2022-08-05T05:19:19.300Z,49.49
2022-08-05T05:21:27.223Z,49.40
2022-08-05T05:23:39.184Z,48.83
2022-08-05T05:25:53.814Z,48.80
2022-08-05T05:27:56.695Z,48.83
2022-08-05T05:30:04.581Z,49.00
2022-08-05T05:32:12.422Z,48.87
2022-08-05T05:34:23.996Z,48.89
2022-08-05T05:36:30.235Z,48.85
2022-08-05T05:38:33.258Z,49.23
2022-08-05T05:40:36.210Z,49.03
2022-08-05T05:42:39.264Z,49.38
2022-08-05T05:44:49.870Z,49.30
2022-08-05T05:46:54.064Z,48.92
2022-08-05T05:48:59.054Z,47.83
2022-08-05T05:51:15.842Z,48.23
2022-08-05T05:53:21.045Z,47.92
2022-08-05T05:55:24.786Z,48.07
2022-08-05T05:57:52.137Z,48.19
2022-08-05T05:59:55.548Z,48.12
2022-08-05T06:02:01.339Z,48.10
2022-08-05T06:04:04.101Z,47.68
2022-08-05T06:06:10.118Z,47.87
2022-08-05T06:08:13.836Z,47.97
2022-08-05T06:10:36.404Z,48.29
2022-08-05T06:12:42.280Z,47.74
2022-08-05T06:14:45.477Z,47.64
2022-08-05T06:16:48.357Z,47.39
2022-08-05T06:18:53.674Z,47.74
2022-08-05T06:20:56.665Z,47.84
2022-08-05T06:22:59.843Z,48.40
2022-08-05T06:25:24.895Z,47.20
2022-08-05T06:28:10.501Z,47.24
2022-08-05T06:30:04.592Z,47.81
2022-08-05T06:32:25.377Z,48.29
2022-08-05T06:34:30.947Z,48.46
2022-08-05T06:36:57.050Z,48.46
2022-08-05T06:38:56.777Z,47.92
2022-08-05T06:40:59.708Z,47.82
2022-08-05T06:43:02.586Z,47.59
2022-08-05T06:45:08.599Z,47.97
2022-08-05T06:48:11.505Z,48.17
2022-08-05T06:50:00.043Z,47.77
2022-08-05T06:51:59.211Z,47.97
2022-08-05T06:54:04.310Z,47.15
2022-08-05T06:56:07.539Z,47.00
2022-08-05T06:58:36.467Z,46.66
2022-08-05T07:00:41.157Z,45.60
2022-08-05T07:02:44.158Z,46.74
2022-08-05T07:04:48.422Z,45.75
2022-08-05T07:06:51.278Z,45.79
2022-08-05T07:08:55.015Z,46.43
2022-08-05T07:10:58.179Z,46.00
2022-08-05T07:13:56.675Z,45.65
2022-08-05T07:16:01.797Z,45.25
2022-08-05T07:18:09.852Z,44.99
2022-08-05T07:20:32.789Z,45.04
2022-08-05T07:22:36.885Z,44.84
2022-08-05T07:24:43.998Z,44.84
2022-08-05T07:26:55.545Z,44.43
2022-08-05T07:28:59.717Z,44.84
2022-08-05T07:31:02.735Z,44.72
2022-08-05T07:33:09.255Z,44.42
2022-08-05T07:36:02.194Z,44.31
2022-08-05T07:37:39.595Z,44.43
2022-08-05T07:40:04.324Z,44.09
2022-08-05T07:42:08.969Z,44.04
2022-08-05T07:44:19.102Z,44.02
2022-08-05T07:46:25.360Z,43.17
2022-08-05T07:49:01.398Z,42.86
2022-08-05T07:50:52.914Z,42.47
2022-08-05T07:52:56.027Z,41.98
2022-08-05T07:54:58.898Z,42.23
2022-08-05T07:57:22.667Z,42.08
2022-08-05T07:59:38.082Z,41.91
2022-08-05T08:01:52.301Z,42.01
2022-08-05T08:04:00.568Z,41.93
2022-08-05T08:06:06.079Z,42.04
2022-08-05T08:08:13.901Z,42.30
2022-08-05T08:10:20.761Z,42.50
2022-08-05T08:12:35.456Z,42.59
2022-08-05T08:14:42.818Z,41.99
2022-08-05T08:16:53.328Z,41.52
2022-08-05T08:18:56.933Z,41.51
2022-08-05T08:21:03.809Z,41.74
2022-08-05T08:24:00.045Z,41.29
2022-08-05T08:25:59.225Z,41.13
2022-08-05T08:27:55.530Z,41.69
2022-08-05T08:30:06.530Z,41.42
2022-08-05T08:32:27.926Z,41.09
2022-08-05T08:34:33.184Z,41.16
2022-08-05T08:36:52.467Z,40.66
2022-08-05T08:38:59.054Z,40.66
2022-08-05T08:41:07.125Z,41.34
2022-08-05T08:44:54.655Z,40.92
2022-08-05T08:45:38.515Z,42.31
2022-08-05T08:48:06.745Z,42.17
2022-08-05T08:50:31.735Z,42.92
2022-08-05T08:52:33.521Z,44.31
2022-08-05T08:54:38.113Z,44.86
2022-08-05T08:56:47.879Z,45.22
2022-08-05T08:58:53.254Z,45.12
2022-08-05T09:00:56.301Z,45.70
2022-08-05T09:02:59.630Z,45.74
2022-08-05T09:05:17.224Z,45.79
2022-08-05T09:07:28.786Z,45.57
2022-08-05T09:09:35.524Z,46.60
2022-08-05T09:11:50.789Z,46.71
2022-08-05T09:14:09.648Z,46.69
2022-08-05T09:16:20.610Z,46.51
2022-08-05T09:18:30.504Z,46.09
2022-08-05T09:20:37.267Z,44.97
2022-08-05T09:23:18.940Z,44.94
2022-08-05T09:25:24.563Z,43.49
2022-08-05T09:28:03.916Z,44.52
2022-08-05T09:30:10.672Z,44.57
2022-08-05T09:32:41.708Z,45.07
2022-08-05T09:34:54.886Z,45.19
2022-08-05T09:36:59.346Z,44.12
2022-08-05T09:39:03.434Z,43.73
2022-08-05T09:41:19.499Z,44.64
2022-08-05T09:43:40.724Z,42.95
2022-08-05T09:46:07.735Z,41.90
2022-08-05T09:48:21.237Z,42.14
2022-08-05T09:50:38.651Z,41.92
2022-08-05T09:52:48.326Z,41.72
2022-08-05T09:54:58.552Z,41.08
2022-08-05T09:57:02.021Z,40.35
2022-08-05T09:59:08.762Z,40.37
2022-08-05T10:01:15.622Z,39.83
2022-08-05T10:03:56.481Z,40.32
2022-08-05T10:06:07.323Z,40.27
2022-08-05T10:08:35.913Z,40.48
2022-08-05T10:10:53.883Z,40.82
2022-08-05T10:12:59.929Z,40.90
2022-08-05T10:15:20.420Z,41.09
2022-08-05T10:17:38.063Z,40.98
2022-08-05T10:20:04.564Z,40.68
2022-08-05T10:22:07.564Z,40.54
2022-08-05T10:24:13.499Z,38.98
2022-08-05T10:26:17.048Z,40.17
2022-08-05T10:28:29.708Z,40.13
2022-08-05T10:31:20.300Z,40.39
2022-08-05T10:33:01.323Z,40.49
2022-08-05T10:35:06.874Z,40.85
2022-08-05T10:37:12.198Z,41.03
2022-08-05T10:39:25.072Z,41.30
2022-08-05T10:41:51.203Z,41.32
2022-08-05T10:43:59.415Z,41.62
2022-08-05T10:46:07.108Z,41.34
2022-08-05T10:48:52.877Z,40.51
2022-08-05T10:51:00.986Z,40.50
2022-08-05T10:53:06.247Z,40.86
2022-08-05T10:55:11.846Z,41.10
2022-08-05T10:57:29.368Z,40.94
2022-08-05T11:00:03.288Z,41.32
2022-08-05T11:02:14.690Z,40.87
2022-08-05T11:04:36.611Z,40.96
2022-08-05T11:07:06.844Z,41.05
2022-08-05T11:09:32.500Z,41.14
2022-08-05T11:11:53.013Z,41.18
2022-08-05T11:13:58.249Z,41.21
2022-08-05T11:16:22.707Z,41.43
2022-08-05T11:18:38.469Z,41.80
2022-08-05T11:20:51.287Z,42.09
2022-08-05T11:22:58.012Z,42.00
2022-08-05T11:26:04.180Z,42.16
2022-08-05T11:28:00.658Z,42.68
2022-08-05T11:30:03.982Z,42.07
2022-08-05T11:32:27.263Z,42.89
2022-08-05T11:34:40.162Z,43.36
2022-08-05T11:36:55.391Z,43.68
2022-08-05T11:39:00.136Z,43.12
2022-08-05T11:41:36.858Z,43.50
2022-08-05T11:44:05.061Z,43.67
2022-08-05T11:46:16.137Z,43.63
2022-08-05T11:48:14.376Z,43.07
2022-08-05T11:50:19.394Z,42.45
2022-08-05T11:52:29.519Z,42.55
2022-08-05T11:54:34.601Z,42.84
2022-08-05T11:56:50.353Z,42.49
2022-08-05T11:58:53.894Z,42.56
2022-08-05T12:01:02.504Z,42.74
2022-08-05T12:03:28.529Z,42.44
2022-08-05T12:05:39.710Z,42.24
2022-08-05T12:08:07.429Z,41.92
2022-08-05T12:10:11.599Z,41.51
2022-08-05T12:12:22.504Z,41.47
2022-08-05T12:14:37.686Z,41.65
2022-08-05T12:16:45.289Z,41.62
2022-08-05T12:18:53.280Z,41.28
2022-08-05T12:20:57.743Z,41.72
2022-08-05T12:23:10.329Z,41.79
2022-08-05T12:25:14.264Z,41.36
2022-08-05T12:27:25.204Z,40.75
2022-08-05T12:29:38.641Z,40.91
2022-08-05T12:31:48.202Z,41.05
2022-08-05T12:33:57.271Z,41.30
2022-08-05T12:36:04.225Z,41.81
2022-08-05T12:38:11.236Z,41.78
2022-08-05T12:40:26.300Z,41.90
2022-08-05T12:42:31.118Z,42.44
2022-08-05T12:44:35.081Z,42.65
2022-08-05T12:46:39.407Z,42.47
2022-08-05T12:48:42.270Z,42.29
2022-08-05T12:50:46.004Z,42.76
2022-08-05T12:52:59.724Z,42.37
2022-08-05T12:55:02.688Z,42.81
2022-08-05T12:57:09.432Z,42.15
2022-08-05T12:59:20.831Z,42.13
2022-08-05T13:02:02.060Z,43.08
2022-08-05T13:03:49.843Z,42.97
2022-08-05T13:05:57.672Z,43.05
2022-08-05T13:08:08.659Z,42.32
2022-08-05T13:10:13.859Z,42.87
2022-08-05T13:12:18.413Z,42.27
2022-08-05T13:14:24.689Z,42.23
2022-08-05T13:16:28.189Z,42.54
2022-08-05T13:18:39.473Z,43.07
2022-08-05T13:20:42.773Z,43.06
2022-08-05T13:22:49.333Z,42.33
2022-08-05T13:24:57.632Z,41.19
2022-08-05T13:27:03.168Z,40.96
2022-08-05T13:29:06.913Z,41.15
2022-08-05T13:31:11.178Z,41.24
2022-08-05T13:34:21.666Z,41.46
2022-08-05T13:35:47.073Z,41.31
2022-08-05T13:37:55.690Z,41.13
2022-08-05T13:40:16.526Z,41.15
2022-08-05T13:42:24.563Z,41.63
2022-08-05T13:44:28.036Z,40.57
2022-08-05T13:48:57.663Z,41.21
2022-08-05T13:51:07.426Z,40.82
2022-08-05T13:53:15.957Z,39.90
2022-08-05T13:55:41.801Z,40.83
2022-08-05T13:57:48.540Z,39.41
2022-08-05T13:59:57.604Z,40.31
2022-08-05T14:02:19.802Z,40.51
2022-08-05T14:04:40.480Z,40.57
2022-08-05T14:06:47.692Z,40.32
2022-08-05T14:08:50.678Z,40.24
2022-08-05T14:11:03.303Z,39.65
2022-08-05T14:13:19.898Z,39.88
2022-08-05T14:16:06.276Z,39.63
2022-08-05T14:17:49.649Z,40.19
2022-08-05T14:19:55.083Z,39.89
2022-08-05T14:22:09.042Z,39.73
2022-08-05T14:24:14.838Z,39.88
2022-08-05T14:26:38.438Z,39.32
2022-08-05T14:28:51.958Z,39.28
2022-08-05T14:30:55.501Z,38.84
2022-08-05T14:32:58.706Z,38.83
2022-08-05T14:35:01.585Z,38.83
2022-08-05T14:37:05.345Z,38.75
2022-08-05T14:39:10.820Z,39.18
2022-08-05T14:41:13.912Z,39.10
2022-08-05T14:43:22.162Z,39.39
2022-08-05T14:45:44.958Z,38.89
2022-08-05T14:48:02.821Z,38.85
2022-08-05T14:50:18.285Z,39.43
2022-08-05T14:52:42.939Z,39.02
2022-08-05T14:54:52.802Z,39.56
2022-08-05T14:56:56.537Z,40.09
2022-08-05T14:59:01.441Z,39.36
2022-08-05T15:01:06.224Z,40.75
2022-08-05T15:03:19.139Z,40.96
2022-08-05T15:05:29.861Z,41.36
2022-08-05T15:08:05.699Z,42.18
2022-08-05T15:09:56.084Z,43.62
2022-08-05T15:11:59.556Z,43.75
2022-08-05T15:14:08.173Z,43.85
2022-08-05T15:16:13.165Z,44.65
2022-08-05T15:18:17.242Z,44.79
2022-08-05T15:20:24.613Z,45.12
2022-08-05T15:22:28.475Z,45.22
2022-08-05T15:24:31.477Z,45.78
2022-08-05T15:26:34.380Z,45.95
2022-08-05T15:28:37.235Z,46.08
2022-08-05T15:30:47.159Z,46.48
2022-08-05T15:32:56.202Z,46.11
2022-08-05T15:34:59.459Z,46.40
2022-08-05T15:37:14.682Z,46.52
2022-08-05T15:41:04.132Z,46.38
2022-08-05T15:41:56.425Z,46.36
2022-08-05T15:44:01.931Z,46.12
2022-08-05T15:46:08.659Z,46.40
2022-08-05T15:48:14.437Z,46.85
2022-08-05T15:50:17.635Z,46.49
2022-08-05T15:52:52.249Z,45.99
2022-08-05T15:54:44.553Z,46.40
2022-08-05T15:56:49.569Z,44.92
2022-08-05T15:58:52.652Z,45.47
2022-08-05T16:01:11.568Z,45.77
2022-08-05T16:03:20.103Z,45.94
2022-08-05T16:05:28.352Z,45.94
2022-08-05T16:07:31.747Z,46.87
2022-08-05T16:09:35.096Z,47.54
2022-08-05T16:11:42.404Z,47.56
2022-08-05T16:13:46.493Z,47.68
2022-08-05T16:15:49.283Z,48.04
2022-08-05T16:17:57.740Z,47.72
2022-08-05T16:20:05.014Z,47.98
2022-08-05T16:22:11.006Z,48.80
2022-08-05T16:24:40.301Z,48.19
2022-08-05T16:26:51.793Z,48.46
2022-08-05T16:28:55.755Z,49.15
2022-08-05T16:30:58.614Z,49.16
2022-08-05T16:33:02.041Z,49.03
2022-08-05T16:35:07.481Z,48.91
2022-08-05T16:38:01.964Z,48.88
2022-08-05T16:40:05.190Z,48.96
2022-08-05T16:42:14.043Z,49.29
2022-08-05T16:44:19.461Z,49.75
2022-08-05T16:46:25.028Z,49.55
2022-08-05T16:48:33.903Z,49.80
2022-08-05T16:50:39.740Z,49.76
2022-08-05T16:52:45.965Z,49.68
2022-08-05T16:54:49.152Z,49.56
2022-08-05T16:56:52.441Z,49.82
2022-08-05T16:58:55.351Z,50.08
2022-08-05T17:00:58.373Z,50.07
2022-08-05T17:03:02.598Z,50.75
2022-08-05T17:05:06.733Z,51.21
2022-08-05T17:07:11.192Z,50.43
2022-08-05T17:09:14.642Z,50.14
2022-08-05T17:11:17.571Z,50.12
2022-08-05T17:13:21.283Z,50.00
2022-08-05T17:15:48.693Z,49.94
2022-08-05T17:17:52.880Z,49.65
2022-08-05T17:19:58.193Z,48.36
2022-08-05T17:22:01.201Z,48.01
2022-08-05T17:24:18.471Z,47.40
2022-08-05T17:26:29.316Z,47.59
2022-08-05T17:28:32.261Z,47.29
2022-08-05T17:30:35.127Z,47.08
2022-08-05T17:32:53.782Z,47.60
2022-08-05T17:34:58.214Z,47.89
2022-08-05T17:37:01.826Z,48.40
2022-08-05T17:39:06.031Z,48.27
2022-08-05T17:42:19.922Z,48.50
2022-08-05T17:43:53.410Z,48.00
2022-08-05T17:45:57.383Z,48.88
2022-08-05T17:48:00.339Z,48.55
2022-08-05T17:50:11.135Z,48.63
2022-08-05T17:52:14.175Z,48.22
2022-08-05T17:54:23.341Z,48.63
2022-08-05T17:56:28.372Z,48.77
2022-08-05T17:58:32.503Z,48.50
2022-08-05T18:00:35.576Z,48.71
2022-08-05T18:02:38.418Z,48.97
2022-08-05T18:04:51.406Z,48.86
2022-08-05T18:06:56.386Z,48.72
2022-08-05T18:09:04.221Z,48.96
2022-08-05T18:11:23.156Z,49.33
2022-08-05T18:13:27.920Z,49.04
2022-08-05T18:15:39.835Z,49.54
2022-08-05T18:17:58.774Z,49.76
2022-08-05T18:20:07.128Z,49.71
2022-08-05T18:22:18.203Z,49.46
2022-08-05T18:24:21.990Z,49.39
2022-08-05T18:26:27.696Z,49.16
2022-08-05T18:28:32.630Z,48.65
2022-08-05T18:30:35.969Z,48.18
2022-08-05T18:32:42.151Z,47.99
2022-08-05T18:34:56.703Z,48.28
2022-08-05T18:36:59.591Z,47.95
2022-08-05T18:39:03.105Z,48.06
2022-08-05T18:41:56.635Z,48.10
2022-08-05T18:43:37.859Z,48.06
2022-08-05T18:45:45.382Z,48.33
2022-08-05T18:47:56.384Z,47.71
2022-08-05T18:50:17.399Z,47.25
2022-08-05T18:52:37.911Z,46.96
2022-08-05T18:54:41.468Z,46.92
2022-08-05T18:56:51.840Z,47.48
2022-08-05T18:59:01.026Z,46.96
2022-08-05T19:01:04.634Z,46.45
2022-08-05T19:03:08.280Z,46.36
2022-08-05T19:06:06.161Z,46.63
2022-08-05T19:07:45.181Z,46.47
2022-08-05T19:09:49.457Z,46.46
2022-08-05T19:12:00.063Z,46.86
2022-08-05T19:14:37.571Z,46.51
2022-08-05T19:16:33.094Z,45.83
2022-08-05T19:18:49.461Z,46.02
2022-08-05T19:20:53.026Z,46.35
2022-08-05T19:22:55.896Z,46.68
2022-08-05T19:25:00.734Z,46.71
2022-08-05T19:27:08.105Z,46.57
2022-08-05T19:29:14.531Z,46.37
2022-08-05T19:31:22.893Z,46.62
2022-08-05T19:33:33.942Z,46.55
2022-08-05T19:35:56.724Z,46.64
2022-08-05T19:38:04.553Z,46.90
2022-08-05T19:40:11.173Z,46.84
2022-08-05T19:42:15.195Z,46.97
2022-08-05T19:44:20.252Z,46.89
2022-08-05T19:46:30.340Z,46.77
2022-08-05T19:48:34.164Z,47.01
2022-08-05T19:50:39.556Z,46.99
2022-08-05T19:52:47.571Z,47.13
2022-08-05T19:54:50.515Z,47.13
2022-08-05T19:56:54.817Z,46.66
2022-08-05T19:58:57.676Z,46.80
2022-08-05T20:01:28.205Z,46.70
2022-08-05T20:03:40.855Z,46.33
2022-08-05T20:05:51.148Z,46.70
2022-08-05T20:07:58.875Z,46.37
2022-08-05T20:10:02.390Z,46.14
2022-08-05T20:12:13.663Z,46.40
2022-08-05T20:14:26.832Z,46.20
2022-08-05T20:16:31.380Z,45.68
2022-08-05T20:18:36.476Z,45.76
2022-08-05T20:20:44.369Z,45.75
2022-08-05T20:22:47.633Z,45.75
2022-08-05T20:24:52.258Z,46.03
2022-08-05T20:26:56.514Z,46.16
2022-08-05T20:29:00.743Z,46.35
2022-08-05T20:31:04.087Z,46.53
2022-08-05T20:33:09.153Z,45.99
2022-08-05T20:35:11.905Z,46.26
2022-08-05T20:37:24.274Z,46.75
2022-08-05T20:39:38.827Z,46.43
2022-08-05T20:41:44.347Z,46.75
2022-08-05T20:43:59.048Z,46.74
2022-08-05T20:46:03.382Z,46.87
2022-08-05T20:48:06.900Z,46.71
2022-08-05T20:50:12.822Z,47.23
2022-08-05T20:52:15.498Z,47.34
2022-08-05T20:54:18.396Z,47.65
2022-08-05T20:56:28.981Z,47.82
2022-08-05T20:58:33.829Z,47.47
2022-08-05T21:00:44.324Z,47.80
2022-08-05T21:03:01.289Z,47.68
2022-08-05T21:05:05.517Z,47.22
2022-08-05T21:07:13.915Z,46.38
2022-08-05T21:09:16.873Z,46.58
2022-08-05T21:12:09.824Z,47.14
2022-08-05T21:13:48.472Z,47.40
2022-08-05T21:15:59.716Z,47.00
2022-08-05T21:18:03.265Z,46.58
2022-08-05T21:20:10.333Z,46.43
2022-08-05T21:22:15.010Z,46.54
2022-08-05T21:24:20.840Z,46.29
2022-08-05T21:26:23.921Z,46.15
2022-08-05T21:28:32.377Z,45.99
2022-08-05T21:30:35.176Z,46.19
2022-08-05T21:32:38.425Z,46.21
2022-08-05T21:34:41.351Z,46.22
2022-08-05T21:36:46.640Z,46.21
2022-08-05T21:38:53.356Z,46.21
2022-08-05T21:40:56.687Z,45.99
2022-08-05T21:43:00.708Z,45.63
2022-08-05T21:45:10.887Z,45.93
2022-08-05T21:47:17.599Z,45.86
2022-08-05T21:49:58.720Z,45.91
2022-08-05T21:52:22.710Z,45.65
2022-08-05T21:54:27.996Z,44.85
2022-08-05T21:56:33.988Z,45.17
2022-08-05T21:58:36.867Z,45.15
2022-08-05T22:00:50.917Z,45.04
2022-08-05T22:02:54.488Z,44.93
2022-08-05T22:04:58.343Z,45.07
2022-08-05T22:07:01.562Z,44.50
2022-08-05T22:09:13.189Z,44.38
2022-08-05T22:11:19.564Z,44.93
2022-08-05T22:14:33.978Z,45.11
2022-08-05T22:16:11.430Z,44.88
2022-08-05T22:18:24.888Z,44.82
2022-08-05T22:20:28.735Z,44.85
2022-08-05T22:22:31.823Z,45.02
2022-08-05T22:24:55.811Z,44.50
2022-08-05T22:27:17.938Z,44.67
2022-08-05T22:29:26.172Z,44.48
2022-08-05T22:31:29.928Z,43.99
2022-08-05T22:33:56.705Z,43.97
2022-08-05T22:35:56.109Z,44.57
2022-08-05T22:37:59.737Z,44.73
2022-08-05T22:40:03.046Z,44.55
2022-08-05T22:42:12.643Z,44.68
2022-08-05T22:44:19.182Z,44.98
2022-08-05T22:46:23.596Z,44.54
2022-08-05T22:48:46.291Z,44.40
2022-08-05T22:50:56.044Z,44.70
2022-08-05T22:53:02.164Z,44.95
2022-08-05T22:55:19.332Z,44.86
2022-08-05T22:57:25.489Z,44.89
2022-08-05T22:59:46.150Z,44.47
2022-08-05T23:02:05.847Z,44.54
2022-08-05T23:04:10.536Z,44.67
2022-08-05T23:06:13.508Z,44.86
2022-08-05T23:08:16.433Z,45.01
2022-08-05T23:10:20.962Z,44.93
2022-08-05T23:12:32.936Z,45.02
2022-08-05T23:14:36.230Z,45.07
2022-08-05T23:16:57.054Z,45.39
2022-08-05T23:19:01.145Z,44.99
2022-08-05T23:21:05.724Z,45.15
2022-08-05T23:23:13.059Z,45.48
2022-08-05T23:25:17.213Z,45.58
2022-08-05T23:27:20.647Z,45.81
2022-08-05T23:29:26.987Z,45.47
2022-08-05T23:31:37.360Z,45.77
2022-08-05T23:34:04.396Z,45.84
2022-08-05T23:36:07.367Z,45.97
2022-08-05T23:38:13.143Z,45.69
2022-08-05T23:40:17.213Z,45.71
2022-08-05T23:42:30.059Z,45.98
2022-08-05T23:44:34.282Z,45.87
2022-08-05T23:46:39.277Z,45.99
2022-08-05T23:48:42.226Z,45.88
2022-08-05T23:50:45.176Z,45.73
2022-08-05T23:52:50.659Z,45.95
2022-08-05T23:54:57.333Z,46.28
2022-08-05T23:57:03.863Z,46.40
2022-08-05T23:59:19.506Z,46.23
